Time;durP1;ratioP1;P1;durP2;ratioP2;P2;SDS_P1;SDS_P2;PMS_P1;PMS_P2;Temp;Humidity;BMP_temperature;BMP_pressure;BME280_temperature;BME280_humidity;BME280_pressure;Samples;Min_cycle;Max_cycle;Signal;HPM_P1;HPM_P2
2023/05/17 00:01:55;;;;;;;;;;;;;;;;;;;;;
2023/05/17 00:05:57;;;;;;;27.10;20.20;;;;;;;9.62;91.10;100202.03;134193;1297;22391;-72
2023/05/17 00:10:03;;;;;;;;;;;;;;;9.61;91.25;100206.93;134258;1297;23224;-72
2023/05/17 00:13:28;;;;;;;;;;;;;;;;;;;;;
2023/05/17 00:16:51;;;;;;;32.70;24.10;;;;;;;9.58;91.58;100218.61;134108;1298;22813;-71
2023/05/17 00:20:16;;;;;;;34.80;24.90;;;;;;;9.58;91.44;100220.16;134247;1297;22390;-72
2023/05/17 00:23:39;;;;;;;32.00;24.00;;;;;;;9.58;91.36;100215.37;134217;1297;22257;-72
2023/05/17 00:27:28;;;;;;;33.00;24.80;;;;;;;9.59;91.52;100209.27;134229;1297;22141;-72
2023/05/17 00:30:52;;;;;;;36.00;24.30;;;;;;;9.58;91.47;100206.52;134208;1297;22482;-72
2023/05/17 00:34:37;;;;;;;;;;;;;;;;;;;;;
2023/05/17 00:38:13;;;;;;;30.70;21.90;;;;;;;9.55;91.53;100208.45;134212;1305;22404;-73
2023/05/17 00:42:52;;;;;;;33.50;25.30;;;;;;;9.53;91.70;100213.65;134183;1297;22210;-72
2023/05/17 00:45:51;;;;;;;33.90;24.30;;;;;;;9.53;91.80;100210.44;134119;1298;22356;-71
2023/05/17 00:49:18;;;;;;;33.20;24.50;;;;;;;9.53;91.66;100209.45;134109;1301;22417;-72
2023/05/17 00:53:22;;;;;;;32.70;24.60;;;;;;;9.52;91.82;100214.73;133835;1298;22497;-72
2023/05/17 00:56:35;;;;;;;28.20;22.30;;;;;;;9.54;91.89;100215.05;134098;1299;22591;-72
2023/05/17 00:59:54;;;;;;;;;;;;;;;;;;;;;
2023/05/17 01:03:13;;;;;;;32.40;23.70;;;;;;;9.55;92.01;100216.27;134230;1297;22430;-72
2023/05/17 01:06:42;;;;;;;31.70;22.50;;;;;;;9.55;92.06;100207.40;134235;1297;22200;-71
2023/05/17 01:10:12;;;;;;;28.50;21.30;;;;;;;9.54;92.14;100204.27;134231;1297;22230;-74
2023/05/17 01:13:39;;;;;;;31.30;21.70;;;;;;;9.53;92.25;100211.53;134174;1298;22500;-72
2023/05/17 01:17:39;;;;;;;;;;;;;;;;;;;;;
2023/05/17 01:21:34;;;;;;;30.80;20.30;;;;;;;9.50;92.38;100215.52;133976;1297;23165;-71
2023/05/17 01:25:12;;;;;;;30.10;21.80;;;;;;;9.50;92.23;100213.09;134111;1297;23137;-72
2023/05/17 01:29:17;;;;;;;26.60;20.90;;;;;;;9.49;92.28;100209.58;134071;1297;23419;-72
2023/05/17 01:33:10;;;;;;;25.90;20.10;;;;;;;9.45;92.49;100211.59;134066;1297;22407;-72
2023/05/17 01:37:07;;;;;;;29.60;22.20;;;;;;;9.43;92.55;100212.80;134124;1300;23100;-72
2023/05/17 01:44:54;;;;;;;32.80;22.90;;;;;;;9.44;92.56;100231.84;133912;1297;22233;-72
2023/05/17 01:48:22;;;;;;;30.40;23.30;;;;;;;9.45;92.69;100232.27;134212;1297;22249;-71
2023/05/17 01:52:01;;;;;;;33.40;23.00;;;;;;;9.47;92.75;100229.24;134135;1298;22295;-73
2023/05/17 01:55:43;;;;;;;30.00;21.50;;;;;;;9.48;92.60;100220.67;134243;1298;22412;-72
2023/05/17 01:59:22;;;;;;;33.70;21.00;;;;;;;9.48;92.51;100225.83;134206;1297;22938;-72
2023/05/17 02:03:08;;;;;;;26.70;19.90;;;;;;;9.48;92.53;100231.73;133967;1305;22380;-72
2023/05/17 02:06:26;;;;;;;27.20;20.30;;;;;;;9.48;92.45;100228.84;134233;1297;23278;-72
2023/05/17 02:10:01;;;;;;;26.90;20.10;;;;;;;9.47;92.51;100233.69;134071;1297;22254;-72
2023/05/17 02:13:50;;;;;;;;;;;;;;;;;;;;;
2023/05/17 02:17:21;;;;;;;22.40;18.50;;;;;;;9.46;92.47;100243.08;134218;1297;22292;-72
2023/05/17 02:21:03;;;;;;;25.90;18.40;;;;;;;9.45;92.51;100245.48;134249;1297;22391;-72
2023/05/17 02:24:44;;;;;;;28.60;18.20;;;;;;;9.45;92.60;100241.11;134228;1298;22441;-72
2023/05/17 02:28:18;;;;;;;20.30;17.40;;;;;;;9.42;92.46;100239.08;134213;1297;22208;-72
2023/05/17 02:31:53;;;;;;;;;;;;;;;;;;;;;
2023/05/17 02:35:56;;;;;;;25.20;18.20;;;;;;;9.39;92.66;100235.11;134225;1297;22375;-73
2023/05/17 02:39:38;;;;;;;20.50;16.30;;;;;;;9.36;92.53;100245.66;134228;1298;22419;-71
2023/05/17 02:43:59;;;;;;;25.90;17.40;;;;;;;9.35;92.63;100240.30;133947;1297;22461;-72
2023/05/17 02:47:23;;;;;;;24.80;15.40;;;;;;;9.34;92.72;100233.50;134181;1298;22452;-72
2023/05/17 02:50:44;;;;;;;21.10;16.20;;;;;;;9.31;92.71;100235.29;134240;1297;22185;-72
2023/05/17 02:54:50;;;;;;;;;;;;;;;;;;;;;
2023/05/17 02:58:31;;;;;;;20.30;14.10;;;;;;;9.23;92.68;100243.28;133978;1297;22370;-72
2023/05/17 03:01:58;;;;;;;24.50;15.40;;;;;;;9.19;92.62;100243.86;134102;1297;22224;-72
2023/05/17 03:05:52;;;;;;;21.90;14.40;;;;;;;9.18;92.70;100243.59;134242;1288;22513;-72
2023/05/17 03:09:30;;;;;;;;;;;;;;;;;;;;;
2023/05/17 03:12:58;;;;;;;23.30;13.90;;;;;;;9.13;92.67;100256.62;134148;1298;23150;-72
2023/05/17 03:16:04;;;;;;;20.90;13.40;;;;;;;9.11;92.46;100252.10;134109;1302;23003;-72
2023/05/17 03:19:39;;;;;;;;;;;;;;;;;;;;;
2023/05/17 03:22:50;;;;;;;18.30;11.90;;;;;;;9.04;92.56;100263.23;134249;1297;23109;-73
2023/05/17 03:25:53;;;;;;;15.20;11.30;;;;;;;9.01;92.37;100271.84;134128;1298;22362;-71
2023/05/17 03:29:37;;;;;;;19.10;12.10;;;;;;;8.98;92.44;100269.67;134245;1297;22367;-73
2023/05/17 03:32:42;;;;;;;18.60;11.20;;;;;;;8.95;92.29;100273.30;134131;1298;22377;-72
2023/05/17 03:36:04;;;;;;;15.60;11.80;;;;;;;8.92;92.39;100277.61;134085;1299;22373;-71
2023/05/17 03:40:00;;;;;;;16.20;10.00;;;;;;;8.89;92.23;100283.91;134214;1297;23392;-72
2023/05/17 03:43:25;;;;;;;19.20;11.20;;;;;;;8.87;92.22;100284.98;134038;1297;22471;-72
2023/05/17 03:47:17;;;;;;;15.00;10.60;;;;;;;8.86;92.13;100290.96;134125;1304;23038;-72
2023/05/17 03:50:18;;;;;;;14.70;10.20;;;;;;;8.86;92.11;100297.67;134143;1298;22302;-71
2023/05/17 03:53:48;;;;;;;19.50;10.40;;;;;;;8.84;91.81;100303.84;134087;1301;22379;-71
2023/05/17 03:57:26;;;;;;;;;;;;;;;;;;;;;
2023/05/17 04:01:01;;;;;;;;;;;;;;;;;;;;;
2023/05/17 04:04:28;;;;;;;18.70;10.30;;;;;;;8.74;91.47;100306.73;134220;1298;23182;-72
2023/05/17 04:08:02;;;;;;;15.20;8.90;;;;;;;8.73;91.36;100315.02;134216;1297;23225;-72
2023/05/17 04:14:53;;;;;;;20.70;9.50;;;;;;;8.68;91.08;100313.88;133998;1297;22648;-72
2023/05/17 04:18:38;;;;;;;;;;;;;;;;;;;;;
2023/05/17 04:22:31;;;;;;;17.80;8.50;;;;;;;8.63;90.83;100314.67;134186;1297;22306;-72
2023/05/17 04:26:01;;;;;;;12.70;7.60;;;;;;;8.62;90.77;100319.63;134092;1301;22705;-72
2023/05/17 04:29:09;;;;;;;11.30;7.50;;;;;;;8.60;90.73;100323.17;134079;1291;23060;-71
2023/05/17 04:32:13;;;;;;;11.00;7.50;;;;;;;8.59;90.65;100331.39;134240;1298;22363;-72
2023/05/17 04:35:51;;;;;;;;;;;;;;;;;;;;;
2023/05/17 04:39:52;;;;;;;;;;;;;;;;;;;;;
2023/05/17 04:43:07;;;;;;;13.00;6.40;;;;;;;8.54;90.14;100345.37;133819;1297;22462;-73
2023/05/17 04:50:50;;;;;;;14.20;7.00;;;;;;;8.54;89.86;100352.44;133967;1297;22405;-72
2023/05/17 04:54:11;;;;;;;;;;;;;;;;;;;;;
2023/05/17 04:58:16;;;;;;;18.70;7.80;;;;;;;8.54;89.62;100351.35;134160;1297;22208;-71
2023/05/17 05:05:27;;;;;;;;;;;;;;;;;;;;;
2023/05/17 05:08:55;;;;;;;12.00;5.70;;;;;;;8.53;89.17;100352.86;133958;1301;22137;-73
2023/05/17 05:12:40;;;;;;;16.40;5.40;;;;;;;8.53;88.95;100353.23;134218;1298;23372;-74
2023/05/17 05:16:00;;;;;;;;;;;;;;;;;;;;;
2023/05/17 05:19:27;;;;;;;13.50;4.70;;;;;;;8.49;87.92;100357.08;134168;1297;22250;-75
2023/05/17 05:22:31;;;;;;;13.90;4.60;;;;;;;8.50;87.99;100362.37;134121;1301;22993;-74
2023/05/17 05:27:01;;;;;;;7.60;4.20;;;;;;;8.51;87.29;100366.32;134113;1298;22494;-74
2023/05/17 05:30:39;;;;;;;9.70;4.40;;;;;;;8.50;87.30;100370.98;134075;1298;22393;-74
2023/05/17 05:33:38;;;;;;;9.30;4.20;;;;;;;8.53;86.84;100371.61;134190;1298;22671;-74
2023/05/17 05:37:41;;;;;;;;;;;;;;;;;;;;;
2023/05/17 05:40:47;;;;;;;11.90;4.10;;;;;;;8.58;86.53;100380.98;134198;1297;23085;-72
2023/05/17 05:43:57;;;;;;;6.40;3.80;;;;;;;8.63;86.28;100391.31;134150;1297;22532;-73
2023/05/17 05:47:35;;;;;;;;;;;;;;;;;;;;;
2023/05/17 05:51:25;;;;;;;;;;;;;;;;;;;;;
2023/05/17 05:55:12;;;;;;;8.20;4.10;;;;;;;8.72;85.47;100390.34;134017;1290;22383;-71
2023/05/17 05:58:41;;;;;;;10.70;4.20;;;;;;;8.80;85.44;100393.36;134249;1298;22513;-72
2023/05/17 06:02:30;;;;;;;10.60;3.90;;;;;;;8.86;85.02;100395.02;134165;1297;22351;-71
2023/05/17 06:06:20;;;;;;;;;;;;;;;;;;;;;
2023/05/17 06:09:54;;;;;;;;;;;;;;;;;;;;;
2023/05/17 06:13:41;;;;;;;6.80;3.70;;;;;;;9.00;84.00;100415.95;134234;1297;22459;-71
2023/05/17 06:17:11;;;;;;;10.90;3.50;;;;;;;9.04;83.51;100419.04;134144;1301;22466;-72
2023/05/17 06:20:49;;;;;;;;;;;;;;;;;;;;;
2023/05/17 06:24:25;;;;;;;12.70;3.70;;;;;;;9.07;81.79;100418.41;134259;1298;23612;-71
2023/05/17 06:28:02;;;;;;;;;;;;;;;;;;;;;
2023/05/17 06:35:40;;;;;;;;;;;;;;;;;;;;;
2023/05/17 06:38:49;;;;;;;13.90;2.80;;;;;;;9.30;80.05;100440.13;134276;1297;22376;-72
2023/05/17 06:43:01;;;;;;;9.10;2.70;;;;;;;9.39;79.89;100441.70;134310;1297;22224;-72
2023/05/17 06:46:22;;;;;;;6.60;2.60;;;;;;;9.58;79.41;100450.86;134243;1297;22443;-72
2023/05/17 06:49:46;;;;;;;7.00;2.60;;;;;;;9.59;78.42;100464.89;134306;1297;22392;-71
2023/05/17 06:53:00;;;;;;;8.50;3.30;;;;;;;9.61;78.38;100471.02;134147;1297;22436;-71
2023/05/17 06:56:30;;;;;;;8.80;3.00;;;;;;;9.66;78.77;100479.69;134264;1298;22470;-71
2023/05/17 06:59:39;;;;;;;18.60;3.20;;;;;;;9.77;79.32;100484.08;134179;1298;24613;-71
2023/05/17 07:03:14;;;;;;;9.60;3.30;;;;;;;9.85;79.04;100483.47;134277;1298;22611;-71
2023/05/17 07:06:58;;;;;;;13.30;3.10;;;;;;;9.92;79.66;100487.02;134265;1297;22443;-71
2023/05/17 07:10:19;;;;;;;7.30;2.40;;;;;;;9.95;78.85;100500.88;134249;1297;22869;-72
2023/05/17 07:13:48;;;;;;;9.50;3.70;;;;;;;9.95;78.93;100495.23;134276;1297;22372;-72
2023/05/17 07:17:40;;;;;;;8.20;3.20;;;;;;;9.94;78.72;100499.67;134249;1297;22376;-72
2023/05/17 07:21:50;;;;;;;8.50;3.20;;;;;;;9.95;78.64;100502.60;134029;1301;22452;-72
2023/05/17 07:25:08;;;;;;;12.20;4.20;;;;;;;9.95;78.51;100511.97;134081;1298;22549;-71
2023/05/17 07:29:11;;;;;;;;;;;;;;;;;;;;;
2023/05/17 07:32:39;;;;;;;;;;;;;;;;;;;;;
2023/05/17 07:35:54;;;;;;;8.50;3.20;;;;;;;10.06;78.25;100508.71;134267;1298;22345;-72
2023/05/17 07:39:47;;;;;;;12.70;3.30;;;;;;;10.04;77.91;100511.45;134201;1298;23109;-72
2023/05/17 07:43:52;;;;;;;;;;;;;;;;;;;;;
2023/05/17 07:47:47;;;;;;;;;;;;;;;;;;;;;
2023/05/17 07:50:59;;;;;;;10.50;3.50;;;;;;;10.10;77.94;100524.09;134221;1298;23096;-71
2023/05/17 07:54:26;;;;;;;10.60;3.60;;;;;;;10.09;77.33;100526.77;134066;1298;272012;-73
2023/05/17 07:57:36;;;;;;;13.20;3.80;;;;;;;10.06;76.68;100529.96;134112;1298;22470;-72
2023/05/17 08:00:59;;;;;;;14.40;3.60;;;;;;;10.09;77.28;100528.76;134146;1301;22401;-72
2023/05/17 08:04:42;;;;;;;14.00;3.40;;;;;;;10.17;77.33;100527.98;134245;1298;22369;-72
2023/05/17 08:08:27;;;;;;;;;;;;;;;;;;;;;
2023/05/17 08:12:02;;;;;;;10.40;3.90;;;;;;;10.19;77.13;100524.55;134256;1297;22455;-71
2023/05/17 08:16:09;;;;;;;9.70;3.80;;;;;;;10.19;76.93;100524.02;133958;1301;22349;-72
2023/05/17 08:19:05;;;;;;;9.50;3.60;;;;;;;10.18;76.97;100524.55;134086;1298;22379;-72
2023/05/17 08:22:32;;;;;;;14.40;4.30;;;;;;;10.18;76.67;100526.64;134235;1298;22426;-72
2023/05/17 08:29:22;;;;;;;10.90;3.70;;;;;;;10.16;76.56;100524.70;134225;1298;23255;-72
2023/05/17 08:37:33;;;;;;;;;;;;;;;;;;;;;
2023/05/17 08:41:01;;;;;;;12.00;4.00;;;;;;;10.36;76.45;100524.17;134044;1297;22432;-72
2023/05/17 08:44:56;;;;;;;;;;;;;;;;;;;;;
2023/05/17 08:49:24;;;;;;;13.80;4.10;;;;;;;10.38;76.10;100520.59;134250;1297;22352;-72
2023/05/17 08:52:39;;;;;;;;;;;;;;;10.41;76.06;100513.91;134124;1298;22479;-73
2023/05/17 08:55:57;;;;;;;;;;;;;;;;;;;;;
2023/05/17 08:59:12;;;;;;;16.60;4.70;;;;;;;10.51;76.08;100523.33;134120;1303;23095;-73
2023/05/17 09:02:28;;;;;;;14.90;5.40;;;;;;;10.57;76.17;100522.12;134243;1304;22467;-73
2023/05/17 09:06:13;;;;;;;;;;;;;;;;;;;;;
2023/05/17 09:09:47;;;;;;;;;;;;;;;;;;;;;
2023/05/17 09:13:21;;;;;;;12.00;5.30;;;;;;;10.89;75.62;100514.89;134129;1298;23283;-73
2023/05/17 09:17:26;;;;;;;13.50;4.70;;;;;;;10.92;75.28;100516.10;134115;1298;22442;-73
2023/05/17 09:21:16;;;;;;;;;;;;;;;;;;;;;
2023/05/17 09:25:10;;;;;;;16.60;5.20;;;;;;;11.16;75.51;100529.05;134202;1298;22594;-73
2023/05/17 09:29:16;;;;;;;;;;;;;;;;;;;;;
2023/05/17 09:32:52;;;;;;;16.30;4.90;;;;;;;11.36;74.96;100528.88;134208;1298;22218;-73
2023/05/17 09:49:06;;;;;;;17.00;5.30;;;;;;;11.51;73.25;100527.25;133667;1298;22344;-73
2023/05/17 10:01:15;;;;;;;;;;;;;;;;;;;;;
2023/05/17 10:04:33;;;;;;;18.60;6.90;;;;;;;11.49;73.29;100535.15;134227;1305;23142;-73
2023/05/17 10:08:10;;;;;;;;;;;;;;;;;;;;;
2023/05/17 10:12:32;;;;;;;17.80;5.80;;;;;;;11.44;72.48;100532.39;134245;1298;22149;-73
2023/05/17 10:20:26;;;;;;;16.80;6.10;;;;;;;11.49;72.55;100536.91;134101;1297;22365;-73
2023/05/17 10:24:05;;;;;;;15.70;6.10;;;;;;;11.49;72.75;100540.74;134214;1297;22288;-73
2023/05/17 10:28:07;;;;;;;;;;;;;;;;;;;;;
2023/05/17 10:31:50;;;;;;;12.30;6.00;;;;;;;11.49;72.42;100551.30;134238;1298;22524;-73
2023/05/17 10:40:11;;;;;;;17.60;6.80;;;;;;;11.56;72.60;100557.93;134046;1298;23175;-73
2023/05/17 10:43:05;;;;;;;19.60;6.10;;;;;;;11.62;72.48;100559.45;134139;1298;22434;-72
2023/05/17 10:47:16;;;;;;;;;;;;;;;;;;;;;
2023/05/17 10:50:32;;;;;;;15.90;5.30;;;;;;;11.61;71.97;100559.13;134115;1301;22232;-72
2023/05/17 10:54:46;;;;;;;;;;;;;;;;;;;;;
2023/05/17 10:59:13;;;;;;;15.20;5.90;;;;;;;11.57;71.99;100559.89;134001;1298;22407;-72
2023/05/17 11:02:23;;;;;;;14.50;5.80;;;;;;;11.57;71.43;100559.59;134211;1297;22346;-73
2023/05/17 11:06:14;;;;;;;14.90;6.10;;;;;;;11.54;71.04;100564.70;133945;1302;22408;-73
2023/05/17 11:09:16;;;;;;;12.10;5.20;;;;;;;11.56;71.19;100567.17;133913;1299;22432;-73
2023/05/17 11:13:02;;;;;;;17.70;5.70;;;;;;;11.57;71.38;100571.11;134208;1298;23080;-73
2023/05/17 11:16:26;;;;;;;;;;;;;;;;;;;;;
2023/05/17 11:20:02;;;;;;;15.90;5.60;;;;;;;11.56;70.98;100569.29;134124;1301;22193;-73
2023/05/17 11:23:33;;;;;;;12.20;4.90;;;;;;;11.56;71.15;100567.33;134018;1305;23005;-72
2023/05/17 11:26:44;;;;;;;15.30;5.10;;;;;;;11.61;71.13;100564.85;134118;1298;23172;-73
2023/05/17 11:30:30;;;;;;;;;;;;;;;;;;;;;
2023/05/17 11:33:41;;;;;;;16.30;5.50;;;;;;;11.67;70.68;100559.25;134146;1299;22354;-73
2023/05/17 11:36:59;;;;;;;17.20;4.60;;;;;;;11.61;70.37;100556.60;134136;1297;22543;-72
2023/05/17 11:40:52;;;;;;;;;;;;;;;;;;;;;
2023/05/17 11:44:25;;;;;;;;;;;;;;;;;;;;;
2023/05/17 11:47:27;;;;;;;16.40;4.90;;;;;;;11.43;70.47;100553.02;134261;1298;23029;-72
2023/05/17 11:50:38;;;;;;;9.40;4.60;;;;;;;11.45;70.25;100552.50;134224;1298;22407;-72
2023/05/17 11:54:41;;;;;;;;;;;;;;;;;;;;;
2023/05/17 11:58:19;;;;;;;13.50;4.70;;;;;;;11.50;70.04;100560.73;134199;1297;22361;-72
2023/05/17 12:02:30;;;;;;;15.30;4.60;;;;;;;11.54;69.77;100563.60;134219;1298;22275;-72
2023/05/17 12:06:05;;;;;;;16.90;4.80;;;;;;;11.55;69.29;100562.81;134182;1298;22447;-72
2023/05/17 12:10:01;;;;;;;;;;;;;;;;;;;;;
2023/05/17 12:13:21;;;;;;;;;;;;;;;;;;;;;
2023/05/17 12:16:53;;;;;;;10.20;4.40;;;;;;;11.63;69.43;100561.39;134139;1303;22394;-72
2023/05/17 12:20:33;;;;;;;;;;;;;;;;;;;;;
2023/05/17 12:27:37;;;;;;;;;;;;;;;11.82;68.96;100566.32;134237;1297;22484;-72
2023/05/17 12:31:22;;;;;;;10.50;3.60;;;;;;;11.84;68.90;100569.89;134184;1297;22511;-72
2023/05/17 12:34:37;;;;;;;;;;;;;;;;;;;;;
2023/05/17 12:37:55;;;;;;;;;;;;;;;;;;;;;
2023/05/17 12:41:31;;;;;;;;;;;;;;;;;;;;;
2023/05/17 12:45:12;;;;;;;;;;;;;;;;;;;;;
2023/05/17 12:49:02;;;;;;;;;;;;;;;;;;;;;
2023/05/17 12:52:49;;;;;;;;;;;;;;;;;;;;;
2023/05/17 12:56:43;;;;;;;13.40;5.00;;;;;;;11.93;67.82;100582.23;134242;1298;23437;-72
2023/05/17 12:59:59;;;;;;;10.60;4.30;;;;;;;11.86;67.58;100586.36;134238;1298;22385;-72
2023/05/17 13:04:12;;;;;;;11.40;4.50;;;;;;;11.77;67.37;100592.90;134231;1303;22457;-72
2023/05/17 13:07:34;;;;;;;;;;;;;;;;;;;;;
2023/05/17 13:11:09;;;;;;;14.50;5.90;;;;;;;11.74;68.34;100595.71;134119;1297;22908;-72
2023/05/17 13:15:06;;;;;;;10.90;4.40;;;;;;;11.78;68.58;100595.16;134079;1298;23417;-72
2023/05/17 13:19:27;;;;;;;15.80;5.00;;;;;;;11.86;68.36;100595.03;134205;1297;22507;-72
2023/05/17 13:22:19;;;;;;;12.70;4.10;;;;;;;11.88;68.03;100598.63;133928;1298;22391;-72
2023/05/17 13:29:38;;;;;;;13.10;3.90;;;;;;;11.89;67.77;100607.27;134236;1297;23239;-72
2023/05/17 13:33:15;;;;;;;;;;;;;;;;;;;;;
2023/05/17 13:36:49;;;;;;;12.10;4.70;;;;;;;11.78;68.22;100620.62;134179;1298;22365;-72
2023/05/17 13:39:56;;;;;;;13.70;5.00;;;;;;;11.72;68.28;100623.36;134251;1297;22506;-72
2023/05/17 13:43:08;;;;;;;14.40;4.50;;;;;;;11.66;68.58;100625.20;134257;1297;25051;-73
2023/05/17 13:50:57;;;;;;;12.80;4.70;;;;;;;11.52;68.80;100636.12;134045;1298;23697;-72
2023/05/17 13:54:32;;;;;;;6.50;3.70;;;;;;;11.45;68.71;100638.08;134164;1297;23228;-73
2023/05/17 13:58:37;;;;;;;12.10;5.70;;;;;;;11.37;68.47;100644.52;134212;1297;23167;-73
2023/05/17 14:01:45;;;;;;;;;;;;;;;;;;;;;
2023/05/17 14:06:22;;;;;;;8.90;3.80;;;;;;;11.25;68.79;100662.36;134180;1298;22411;-72
2023/05/17 14:09:29;;;;;;;12.70;5.10;;;;;;;11.18;68.98;100666.58;133919;1297;22497;-74
2023/05/17 14:12:57;;;;;;;;;;;;;;;;;;;;;
2023/05/17 14:20:55;;;;;;;;;;;;;;;;;;;;;
2023/05/17 14:28:50;;;;;;;14.00;5.30;;;;;;;11.17;69.27;100682.92;133780;1300;22595;-72
2023/05/17 14:32:53;;;;;;;;;;;;;;;;;;;;;
2023/05/17 14:36:32;;;;;;;10.40;5.30;;;;;;;11.24;69.07;100690.13;133742;1301;22188;-71
2023/05/17 14:39:56;;;;;;;12.90;6.10;;;;;;;11.26;69.23;100697.46;133746;1300;23232;-72
2023/05/17 14:47:38;;;;;;;;;;;;;;;;;;;;;
2023/05/17 14:51:21;;;;;;;12.20;5.70;;;;;;;11.41;69.45;100693.40;134035;1298;22350;-72
2023/05/17 14:54:34;;;;;;;12.20;5.10;;;;;;;11.47;69.48;100690.67;134218;1297;22180;-72
2023/05/17 14:57:56;;;;;;;16.90;6.60;;;;;;;11.57;69.77;100688.23;134237;1297;23168;-72
2023/05/17 15:01:01;;;;;;;14.60;6.50;;;;;;;11.66;69.44;100691.65;134140;1297;22874;-72
2023/05/17 15:04:01;;;;;;;;;;;;;;;11.76;69.40;100691.96;134024;1298;22476;-72
2023/05/17 15:07:06;;;;;;;;;;;;;;;11.81;68.83;100690.34;134217;1298;22553;-71
2023/05/17 15:10:16;;;;;;;10.60;5.10;;;;;;;11.81;68.44;100693.10;134196;1298;23158;-72
2023/05/17 15:13:20;;;;;;;14.30;5.00;;;;;;;11.86;68.38;100694.60;134026;1298;22406;-72
2023/05/17 15:16:21;;;;;;;10.90;4.90;;;;;;;11.92;68.45;100699.34;134004;1299;22422;-72
2023/05/17 15:19:35;;;;;;;16.70;5.60;;;;;;;12.00;68.35;100701.30;134257;1297;24429;-72
2023/05/17 15:27:07;;;;;;;13.00;4.80;;;;;;;12.17;68.37;100708.25;134241;1297;22378;-72
2023/05/17 15:30:26;;;;;;;11.30;5.70;;;;;;;12.20;68.08;100712.04;134165;1298;22500;-72
2023/05/17 15:38:10;;;;;;;8.80;4.30;;;;;;;12.27;66.97;100719.58;134227;1298;22358;-72
2023/05/17 15:41:51;;;;;;;10.00;5.10;;;;;;;12.27;67.21;100722.00;134267;1297;22435;-72
2023/05/17 15:45:02;;;;;;;11.50;4.20;;;;;;;12.26;66.73;100730.02;134263;1297;22341;-73
2023/05/17 15:48:10;;;;;;;13.60;5.00;;;;;;;12.19;66.02;100727.71;134302;1301;22982;-72
2023/05/17 15:51:11;;;;;;;14.40;5.30;;;;;;;12.14;66.15;100729.98;134163;1298;22281;-72
2023/05/17 15:54:52;;;;;;;;;;;;;;;;;;;;;
2023/05/17 15:58:17;;;;;;;12.70;5.00;;;;;;;12.10;66.28;100728.60;134189;1297;23336;-72
2023/05/17 16:01:49;;;;;;;14.80;5.20;;;;;;;12.08;66.21;100730.23;134288;1285;23083;-72
2023/05/17 16:05:42;;;;;;;;;;;;;;;;;;;;;
2023/05/17 16:09:54;;;;;;;;;;;;;;;;;;;;;
2023/05/17 16:12:56;;;;;;;15.20;5.80;;;;;;;11.86;65.84;100731.33;134261;1301;22398;-72
2023/05/17 16:16:06;;;;;;;16.10;6.80;;;;;;;11.79;66.24;100732.71;134263;1301;22423;-72
2023/05/17 16:19:32;;;;;;;12.30;6.00;;;;;;;11.75;66.04;100734.39;134246;1298;22383;-72
2023/05/17 16:23:28;;;;;;;14.20;6.60;;;;;;;11.68;65.87;100739.90;134234;1297;22630;-72
2023/05/17 16:27:09;;;;;;;18.70;7.50;;;;;;;11.62;66.04;100745.23;134274;1298;22433;-72
2023/05/17 16:30:26;;;;;;;15.20;6.40;;;;;;;11.55;65.94;100755.05;134062;1297;22426;-72
2023/05/17 16:33:46;;;;;;;;;;;;;;;;;;;;;
2023/05/17 16:37:34;;;;;;;14.00;6.30;;;;;;;11.47;66.22;100764.39;134199;1297;22454;-72
2023/05/17 16:41:06;;;;;;;;;;;;;;;;;;;;;
2023/05/17 16:44:33;;;;;;;;;;;;;;;;;;;;;
2023/05/17 16:47:57;;;;;;;16.00;7.10;;;;;;;11.40;66.27;100778.78;134134;1297;23152;-73
2023/05/17 16:51:04;;;;;;;17.00;7.10;;;;;;;11.39;66.33;100783.06;134285;1290;22164;-72
2023/05/17 16:54:18;;;;;;;18.70;7.00;;;;;;;11.41;66.70;100780.42;134151;1300;23197;-73
2023/05/17 16:57:40;;;;;;;18.50;6.30;;;;;;;11.41;66.72;100781.30;134251;1297;22480;-72
2023/05/17 17:00:58;;;;;;;19.70;6.90;;;;;;;11.38;66.42;100780.51;134238;1297;23028;-72
2023/05/17 17:04:21;;;;;;;20.20;7.70;;;;;;;11.38;66.38;100779.67;134256;1297;22386;-72
2023/05/17 17:07:56;;;;;;;17.40;7.00;;;;;;;11.35;66.31;100778.55;134129;1297;22144;-73
2023/05/17 17:11:00;;;;;;;19.70;8.30;;;;;;;11.32;66.49;100777.77;134070;1298;22897;-72
2023/05/17 17:14:17;;;;;;;20.30;7.70;;;;;;;11.31;66.47;100774.37;134235;1297;23151;-73
2023/05/17 17:17:32;;;;;;;20.30;8.20;;;;;;;11.29;66.14;100776.81;134233;1297;22371;-72
2023/05/17 17:20:45;;;;;;;15.30;7.30;;;;;;;11.26;65.97;100776.63;134276;1297;23100;-72
2023/05/17 17:23:46;;;;;;;24.70;9.20;;;;;;;11.21;66.03;100772.67;134258;1297;22064;-72
2023/05/17 17:27:30;;;;;;;20.70;8.40;;;;;;;11.18;66.00;100769.10;134167;1297;23023;-72
2023/05/17 17:30:31;;;;;;;14.60;6.20;;;;;;;11.15;65.83;100772.02;134304;1297;23434;-73
2023/05/17 17:33:41;;;;;;;15.70;6.90;;;;;;;11.13;66.01;100776.48;134297;1297;22365;-72
2023/05/17 17:36:49;;;;;;;14.90;6.80;;;;;;;11.13;66.11;100778.92;134243;1297;22354;-71
2023/05/17 17:40:27;;;;;;;16.20;6.80;;;;;;;11.12;65.97;100774.13;134240;1297;23057;-71
2023/05/17 17:44:10;;;;;;;;;;;;;;;;;;;;;
2023/05/17 17:47:45;;;;;;;17.00;8.30;;;;;;;11.04;65.74;100783.41;134266;1286;22461;-73
2023/05/17 17:51:35;;;;;;;22.20;10.70;;;;;;;11.02;65.78;100785.98;133978;1297;22813;-71
2023/05/17 17:55:07;;;;;;;23.70;10.30;;;;;;;10.98;65.65;100797.65;134249;1297;22326;-71
2023/05/17 17:58:34;;;;;;;25.80;12.10;;;;;;;11.00;66.46;100802.02;134239;1297;22173;-71
2023/05/17 18:06:26;;;;;;;21.70;9.40;;;;;;;11.14;66.66;100813.77;134094;1297;23016;-71
2023/05/17 18:09:50;;;;;;;25.40;9.40;;;;;;;11.21;66.79;100812.32;134200;1297;22369;-71
2023/05/17 18:12:53;;;;;;;22.90;10.00;;;;;;;11.19;66.53;100810.17;134221;1297;22384;-71
2023/05/17 18:16:52;;;;;;;27.70;10.30;;;;;;;11.13;66.69;100813.66;134137;1298;22380;-72
2023/05/17 18:19:41;;;;;;;26.50;11.00;;;;;;;11.07;66.73;100821.38;134157;1297;22215;-71
2023/05/17 18:23:39;;;;;;;;;;;;;;;;;;;;;
2023/05/17 18:27:41;;;;;;;;;;;;;;;;;;;;;
2023/05/17 18:31:35;;;;;;;;;;;;;;;;;;;;;
2023/05/17 18:35:18;;;;;;;;;;;;;;;;;;;;;
2023/05/17 18:38:59;;;;;;;;;;;;;;;;;;;;;
2023/05/17 18:42:31;;;;;;;31.90;15.50;;;;;;;10.68;67.57;100862.88;134143;1298;22575;-73
2023/05/17 18:45:55;;;;;;;29.60;13.90;;;;;;;10.60;67.78;100868.82;134043;1297;23124;-72
2023/05/17 18:57:50;;;;;;;26.40;12.00;;;;;;;10.37;69.12;100876.84;134218;1297;23288;-73
2023/05/17 19:01:43;;;;;;;;;;;;;;;;;;;;;
2023/05/17 19:05:07;;;;;;;16.10;8.00;;;;;;;10.19;69.01;100894.30;134197;1297;22360;-73
2023/05/17 19:08:58;;;;;;;14.90;7.70;;;;;;;10.13;69.43;100892.51;134252;1295;22471;-73
2023/05/17 19:13:11;;;;;;;;;;;;;;;;;;;;;
2023/05/17 19:17:08;;;;;;;;;;;;;;;;;;;;;
2023/05/17 19:20:45;;;;;;;20.60;10.60;;;;;;;9.99;70.37;100892.08;133951;1297;22486;-74
2023/05/17 19:24:13;;;;;;;28.90;10.60;;;;;;;9.96;70.77;100893.48;134201;1297;23116;-73
2023/05/17 19:28:00;;;;;;;;;;;;;;;;;;;;;
2023/05/17 19:31:43;;;;;;;22.00;10.60;;;;;;;9.87;71.54;100911.95;134231;1297;22354;-73
2023/05/17 19:35:22;;;;;;;20.10;9.80;;;;;;;9.85;71.72;100914.61;134075;1297;22444;-73
2023/05/17 19:38:23;;;;;;;22.60;9.60;;;;;;;9.81;71.83;100912.70;134204;1298;22161;-73
2023/05/17 19:41:41;;;;;;;21.20;10.90;;;;;;;9.76;72.04;100910.83;134242;1297;22494;-73
2023/05/17 19:44:51;;;;;;;20.50;11.20;;;;;;;9.70;72.19;100910.30;134233;1297;22418;-73
2023/05/17 19:47:52;;;;;;;27.30;12.90;;;;;;;9.68;72.48;100909.08;134268;1298;23168;-73
2023/05/17 19:51:41;;;;;;;;;;;;;;;;;;;;;
2023/05/17 19:54:52;;;;;;;32.30;16.60;;;;;;;9.56;72.61;100910.73;134069;1297;22364;-74
2023/05/17 19:57:56;;;;;;;29.10;14.10;;;;;;;9.53;72.74;100909.46;134231;1298;22240;-73
2023/05/17 20:01:01;;;;;;;23.30;14.30;;;;;;;9.51;73.01;100907.33;134134;1298;22207;-73
2023/05/17 20:04:22;;;;;;;29.70;16.20;;;;;;;9.49;73.17;100909.29;134163;1301;22441;-73
2023/05/17 20:08:03;;;;;;;31.80;15.10;;;;;;;9.47;73.35;100912.31;134277;1298;22357;-73
2023/05/17 20:11:25;;;;;;;;;;;;;;;;;;;;;
2023/05/17 20:14:36;;;;;;;35.80;15.40;;;;;;;9.44;73.32;100906.91;134016;1298;22978;-73
2023/05/17 20:17:54;;;;;;;36.00;17.00;;;;;;;9.41;73.35;100904.48;134231;1298;22249;-73
2023/05/17 20:20:55;;;;;;;29.50;12.50;;;;;;;9.36;73.41;100897.02;134104;1298;22434;-73
2023/05/17 20:24:14;;;;;;;29.30;11.50;;;;;;;9.31;73.15;100894.86;134248;1298;22453;-73
2023/05/17 20:27:25;;;;;;;22.80;10.00;;;;;;;9.28;72.80;100894.94;134258;1297;22367;-74